sensor_id;sensor_type;location;lat;lon;timestamp;temperature;humidity
14057;DHT22;7103;54.300;10.180;2023-04-15T00:00:57;7.90;99.90
14057;DHT22;7103;54.300;10.180;2023-04-15T00:03:26;7.90;99.90
14057;DHT22;7103;54.300;10.180;2023-04-15T00:05:54;8.00;99.90
14057;DHT22;7103;54.300;10.180;2023-04-15T00:08:22;7.90;99.90
14057;DHT22;7103;54.300;10.180;2023-04-15T00:10:49;7.90;99.90
14057;DHT22;7103;54.300;10.180;2023-04-15T00:13:16;7.90;99.90
14057;DHT22;7103;54.300;10.180;2023-04-15T00:15:43;8.00;1.00
14057;DHT22;7103;54.300;10.180;2023-04-15T00:18:10;8.00;1.00
14057;DHT22;7103;54.300;10.180;2023-04-15T00:20:37;8.00;1.00
14057;DHT22;7103;54.300;10.180;2023-04-15T00:23:04;8.10;1.00
14057;DHT22;7103;54.300;10.180;2023-04-15T00:25:31;8.10;1.00
14057;DHT22;7103;54.300;10.180;2023-04-15T00:27:58;8.00;1.00
14057;DHT22;7103;54.300;10.180;2023-04-15T00:30:25;8.10;1.00
14057;DHT22;7103;54.300;10.180;2023-04-15T00:32:52;8.10;1.00
14057;DHT22;7103;54.300;10.180;2023-04-15T00:35:19;8.00;1.00
14057;DHT22;7103;54.300;10.180;2023-04-15T00:37:47;8.00;1.00
14057;DHT22;7103;54.300;10.180;2023-04-15T00:40:16;8.10;1.00
14057;DHT22;7103;54.300;10.180;2023-04-15T00:42:44;8.10;1.00
14057;DHT22;7103;54.300;10.180;2023-04-15T00:45:11;8.10;1.00
14057;DHT22;7103;54.300;10.180;2023-04-15T00:47:40;8.20;1.00
14057;DHT22;7103;54.300;10.180;2023-04-15T00:50:08;8.10;1.00
14057;DHT22;7103;54.300;10.180;2023-04-15T00:52:36;8.10;1.00
14057;DHT22;7103;54.300;10.180;2023-04-15T00:55:03;8.10;1.00
14057;DHT22;7103;54.300;10.180;2023-04-15T00:57:31;8.10;1.00
14057;DHT22;7103;54.300;10.180;2023-04-15T00:59:59;8.10;1.00
14057;DHT22;7103;54.300;10.180;2023-04-15T01:02:26;8.10;1.00
14057;DHT22;7103;54.300;10.180;2023-04-15T01:04:53;8.10;1.00
14057;DHT22;7103;54.300;10.180;2023-04-15T01:07:22;8.10;1.00
14057;DHT22;7103;54.300;10.180;2023-04-15T01:09:49;8.00;1.00
14057;DHT22;7103;54.300;10.180;2023-04-15T01:12:16;8.10;1.00
14057;DHT22;7103;54.300;10.180;2023-04-15T01:14:43;8.10;1.00
14057;DHT22;7103;54.300;10.180;2023-04-15T01:17:11;8.10;1.00
14057;DHT22;7103;54.300;10.180;2023-04-15T01:19:39;8.10;1.00
14057;DHT22;7103;54.300;10.180;2023-04-15T01:22:06;8.10;1.00
14057;DHT22;7103;54.300;10.180;2023-04-15T01:24:34;8.00;1.00
14057;DHT22;7103;54.300;10.180;2023-04-15T01:27:03;8.10;1.00
14057;DHT22;7103;54.300;10.180;2023-04-15T01:29:36;8.10;1.00
14057;DHT22;7103;54.300;10.180;2023-04-15T01:32:03;8.20;1.00
14057;DHT22;7103;54.300;10.180;2023-04-15T01:34:31;8.10;1.00
14057;DHT22;7103;54.300;10.180;2023-04-15T01:37:01;8.10;1.00
14057;DHT22;7103;54.300;10.180;2023-04-15T01:39:28;8.20;1.00
14057;DHT22;7103;54.300;10.180;2023-04-15T01:41:55;8.20;1.00
14057;DHT22;7103;54.300;10.180;2023-04-15T01:44:23;8.20;1.00
14057;DHT22;7103;54.300;10.180;2023-04-15T01:46:49;8.20;1.00
14057;DHT22;7103;54.300;10.180;2023-04-15T01:49:16;8.20;1.00
14057;DHT22;7103;54.300;10.180;2023-04-15T01:51:44;8.20;1.00
14057;DHT22;7103;54.300;10.180;2023-04-15T01:54:11;8.30;1.00
14057;DHT22;7103;54.300;10.180;2023-04-15T01:56:38;8.30;1.00
14057;DHT22;7103;54.300;10.180;2023-04-15T01:59:05;8.20;1.00
14057;DHT22;7103;54.300;10.180;2023-04-15T02:01:32;8.20;1.00
14057;DHT22;7103;54.300;10.180;2023-04-15T02:03:59;8.30;1.00
14057;DHT22;7103;54.300;10.180;2023-04-15T02:06:26;8.30;1.00
14057;DHT22;7103;54.300;10.180;2023-04-15T02:08:53;8.30;1.00
14057;DHT22;7103;54.300;10.180;2023-04-15T02:11:20;8.20;1.00
14057;DHT22;7103;54.300;10.180;2023-04-15T02:13:48;8.20;1.00
14057;DHT22;7103;54.300;10.180;2023-04-15T02:16:19;8.30;1.00
14057;DHT22;7103;54.300;10.180;2023-04-15T02:18:46;8.30;1.00
14057;DHT22;7103;54.300;10.180;2023-04-15T02:21:13;8.20;1.00
14057;DHT22;7103;54.300;10.180;2023-04-15T02:23:40;8.20;1.00
14057;DHT22;7103;54.300;10.180;2023-04-15T02:26:07;8.30;1.00
14057;DHT22;7103;54.300;10.180;2023-04-15T02:28:35;8.30;1.00
14057;DHT22;7103;54.300;10.180;2023-04-15T02:31:06;8.30;1.00
14057;DHT22;7103;54.300;10.180;2023-04-15T02:33:33;8.30;1.00
14057;DHT22;7103;54.300;10.180;2023-04-15T02:36:00;8.40;1.00
14057;DHT22;7103;54.300;10.180;2023-04-15T02:38:27;8.30;1.00
14057;DHT22;7103;54.300;10.180;2023-04-15T02:40:54;8.30;1.00
14057;DHT22;7103;54.300;10.180;2023-04-15T02:43:22;8.30;1.00
14057;DHT22;7103;54.300;10.180;2023-04-15T02:45:49;8.20;1.00
14057;DHT22;7103;54.300;10.180;2023-04-15T02:48:17;8.30;1.00
14057;DHT22;7103;54.300;10.180;2023-04-15T02:50:46;8.20;1.00
14057;DHT22;7103;54.300;10.180;2023-04-15T02:53:13;8.30;1.00
14057;DHT22;7103;54.300;10.180;2023-04-15T02:55:40;8.30;1.00
14057;DHT22;7103;54.300;10.180;2023-04-15T02:58:08;8.20;1.00
14057;DHT22;7103;54.300;10.180;2023-04-15T03:00:35;8.30;1.00
14057;DHT22;7103;54.300;10.180;2023-04-15T03:03:04;8.20;1.00
14057;DHT22;7103;54.300;10.180;2023-04-15T03:05:31;8.20;1.00
14057;DHT22;7103;54.300;10.180;2023-04-15T03:07:58;8.20;1.00
14057;DHT22;7103;54.300;10.180;2023-04-15T03:10:27;8.30;1.00
14057;DHT22;7103;54.300;10.180;2023-04-15T03:12:54;8.30;1.00
14057;DHT22;7103;54.300;10.180;2023-04-15T03:15:21;8.30;1.00
14057;DHT22;7103;54.300;10.180;2023-04-15T03:17:48;8.30;1.00
14057;DHT22;7103;54.300;10.180;2023-04-15T03:20:15;8.30;1.00
14057;DHT22;7103;54.300;10.180;2023-04-15T03:22:42;8.30;1.00
14057;DHT22;7103;54.300;10.180;2023-04-15T03:25:09;8.30;1.00
14057;DHT22;7103;54.300;10.180;2023-04-15T03:27:37;8.30;1.00
14057;DHT22;7103;54.300;10.180;2023-04-15T03:30:05;8.30;1.00
14057;DHT22;7103;54.300;10.180;2023-04-15T03:32:32;8.20;1.00
14057;DHT22;7103;54.300;10.180;2023-04-15T03:34:59;8.30;1.00
14057;DHT22;7103;54.300;10.180;2023-04-15T03:37:26;8.30;1.00
14057;DHT22;7103;54.300;10.180;2023-04-15T03:39:53;8.30;1.00
14057;DHT22;7103;54.300;10.180;2023-04-15T03:42:20;8.30;1.00
14057;DHT22;7103;54.300;10.180;2023-04-15T03:44:47;8.30;1.00
14057;DHT22;7103;54.300;10.180;2023-04-15T03:47:14;8.40;1.00
14057;DHT22;7103;54.300;10.180;2023-04-15T03:49:41;8.30;1.00
14057;DHT22;7103;54.300;10.180;2023-04-15T03:52:08;8.30;1.00
14057;DHT22;7103;54.300;10.180;2023-04-15T03:54:35;8.30;1.00
14057;DHT22;7103;54.300;10.180;2023-04-15T03:57:02;8.40;1.00
14057;DHT22;7103;54.300;10.180;2023-04-15T03:59:29;8.40;1.00
14057;DHT22;7103;54.300;10.180;2023-04-15T04:01:56;8.40;1.00
14057;DHT22;7103;54.300;10.180;2023-04-15T04:04:23;8.40;1.00
14057;DHT22;7103;54.300;10.180;2023-04-15T04:06:50;8.40;1.00
14057;DHT22;7103;54.300;10.180;2023-04-15T04:09:17;8.30;1.00
14057;DHT22;7103;54.300;10.180;2023-04-15T04:11:44;8.40;8.50
14057;DHT22;7103;54.300;10.180;2023-04-15T04:14:11;8.30;6.00
14057;DHT22;7103;54.300;10.180;2023-04-15T04:16:38;8.30;13.40
14057;DHT22;7103;54.300;10.180;2023-04-15T04:19:05;8.40;28.20
14057;DHT22;7103;54.300;10.180;2023-04-15T04:21:32;8.40;39.70
14057;DHT22;7103;54.300;10.180;2023-04-15T04:23:59;8.50;45.80
14057;DHT22;7103;54.300;10.180;2023-04-15T04:26:26;8.50;30.70
14057;DHT22;7103;54.300;10.180;2023-04-15T04:28:53;8.40;23.40
14057;DHT22;7103;54.300;10.180;2023-04-15T04:31:20;8.40;20.90
14057;DHT22;7103;54.300;10.180;2023-04-15T04:33:48;8.40;18.50
14057;DHT22;7103;54.300;10.180;2023-04-15T04:36:14;8.40;28.20
14057;DHT22;7103;54.300;10.180;2023-04-15T04:38:41;8.40;34.50
14057;DHT22;7103;54.300;10.180;2023-04-15T04:41:08;8.40;33.60
14057;DHT22;7103;54.300;10.180;2023-04-15T04:43:35;8.40;51.50
14057;DHT22;7103;54.300;10.180;2023-04-15T04:46:02;8.50;57.30
14057;DHT22;7103;54.300;10.180;2023-04-15T04:48:29;8.50;62.70
14057;DHT22;7103;54.300;10.180;2023-04-15T04:50:57;8.50;62.80
14057;DHT22;7103;54.300;10.180;2023-04-15T04:53:23;8.50;62.80
14057;DHT22;7103;54.300;10.180;2023-04-15T04:55:50;8.60;91.40
14057;DHT22;7103;54.300;10.180;2023-04-15T04:58:18;8.60;83.40
14057;DHT22;7103;54.300;10.180;2023-04-15T05:00:45;8.60;68.10
14057;DHT22;7103;54.300;10.180;2023-04-15T05:03:12;8.60;57.30
14057;DHT22;7103;54.300;10.180;2023-04-15T05:05:39;8.60;51.70
14057;DHT22;7103;54.300;10.180;2023-04-15T05:08:06;8.70;51.80
14057;DHT22;7103;54.300;10.180;2023-04-15T05:10:33;8.60;39.90
14057;DHT22;7103;54.300;10.180;2023-04-15T05:13:00;8.60;43.40
14057;DHT22;7103;54.300;10.180;2023-04-15T05:15:27;8.70;55.00
14057;DHT22;7103;54.300;10.180;2023-04-15T05:17:54;8.70;51.80
14057;DHT22;7103;54.300;10.180;2023-04-15T05:20:21;8.70;43.20
14057;DHT22;7103;54.300;10.180;2023-04-15T05:22:48;8.70;32.50
14057;DHT22;7103;54.300;10.180;2023-04-15T05:25:16;8.60;26.10
14057;DHT22;7103;54.300;10.180;2023-04-15T05:27:43;8.60;25.80
14057;DHT22;7103;54.300;10.180;2023-04-15T05:30:10;8.60;32.40
14057;DHT22;7103;54.300;10.180;2023-04-15T05:32:39;8.70;41.30
14057;DHT22;7103;54.300;10.180;2023-04-15T05:35:06;8.70;44.10
14057;DHT22;7103;54.300;10.180;2023-04-15T05:37:34;8.70;40.00
14057;DHT22;7103;54.300;10.180;2023-04-15T05:40:01;8.60;33.90
14057;DHT22;7103;54.300;10.180;2023-04-15T05:42:28;8.60;39.90
14057;DHT22;7103;54.300;10.180;2023-04-15T05:44:55;8.60;33.90
14057;DHT22;7103;54.300;10.180;2023-04-15T05:47:22;8.60;44.10
14057;DHT22;7103;54.300;10.180;2023-04-15T05:49:49;8.60;62.80
14057;DHT22;7103;54.300;10.180;2023-04-15T05:52:16;8.70;60.50
14057;DHT22;7103;54.300;10.180;2023-04-15T05:54:43;8.70;33.20
14057;DHT22;7103;54.300;10.180;2023-04-15T05:57:10;8.60;23.40
14057;DHT22;7103;54.300;10.180;2023-04-15T05:59:37;8.60;34.00
14057;DHT22;7103;54.300;10.180;2023-04-15T06:02:04;8.60;29.40
14057;DHT22;7103;54.300;10.180;2023-04-15T06:04:32;8.60;20.00
14057;DHT22;7103;54.300;10.180;2023-04-15T06:06:59;8.70;37.80
14057;DHT22;7103;54.300;10.180;2023-04-15T06:09:26;8.80;39.10
14057;DHT22;7103;54.300;10.180;2023-04-15T06:11:54;8.80;32.70
14057;DHT22;7103;54.300;10.180;2023-04-15T06:14:22;8.80;34.80
14057;DHT22;7103;54.300;10.180;2023-04-15T06:16:49;8.90;19.20
14057;DHT22;7103;54.300;10.180;2023-04-15T06:19:17;8.90;1.00
14057;DHT22;7103;54.300;10.180;2023-04-15T06:21:44;8.80;1.00
14057;DHT22;7103;54.300;10.180;2023-04-15T06:24:11;8.80;1.00
14057;DHT22;7103;54.300;10.180;2023-04-15T06:26:39;8.80;1.00
14057;DHT22;7103;54.300;10.180;2023-04-15T06:29:06;8.80;1.00
14057;DHT22;7103;54.300;10.180;2023-04-15T06:31:32;8.80;1.00
14057;DHT22;7103;54.300;10.180;2023-04-15T06:33:59;8.80;1.00
14057;DHT22;7103;54.300;10.180;2023-04-15T06:36:26;8.90;1.00
14057;DHT22;7103;54.300;10.180;2023-04-15T06:38:53;9.00;1.00
14057;DHT22;7103;54.300;10.180;2023-04-15T06:41:20;8.90;1.00
14057;DHT22;7103;54.300;10.180;2023-04-15T06:43:47;8.80;1.00
14057;DHT22;7103;54.300;10.180;2023-04-15T06:46:14;8.90;1.00
14057;DHT22;7103;54.300;10.180;2023-04-15T06:48:41;8.90;1.00
14057;DHT22;7103;54.300;10.180;2023-04-15T06:51:08;8.90;1.00
14057;DHT22;7103;54.300;10.180;2023-04-15T06:53:35;8.90;1.00
14057;DHT22;7103;54.300;10.180;2023-04-15T06:56:09;8.90;1.00
14057;DHT22;7103;54.300;10.180;2023-04-15T06:58:36;8.90;1.00
14057;DHT22;7103;54.300;10.180;2023-04-15T07:01:03;8.90;1.00
14057;DHT22;7103;54.300;10.180;2023-04-15T07:03:31;9.00;1.00
14057;DHT22;7103;54.300;10.180;2023-04-15T07:05:58;8.90;1.00
14057;DHT22;7103;54.300;10.180;2023-04-15T07:08:27;8.90;1.00
14057;DHT22;7103;54.300;10.180;2023-04-15T07:10:53;8.90;1.00
14057;DHT22;7103;54.300;10.180;2023-04-15T07:13:20;8.90;1.00
14057;DHT22;7103;54.300;10.180;2023-04-15T07:15:48;8.90;1.00
14057;DHT22;7103;54.300;10.180;2023-04-15T07:18:14;9.00;1.00
14057;DHT22;7103;54.300;10.180;2023-04-15T07:20:42;8.90;1.00
14057;DHT22;7103;54.300;10.180;2023-04-15T07:23:09;8.90;1.00
14057;DHT22;7103;54.300;10.180;2023-04-15T07:25:36;9.00;1.00
14057;DHT22;7103;54.300;10.180;2023-04-15T07:28:03;9.00;1.00
14057;DHT22;7103;54.300;10.180;2023-04-15T07:30:30;9.00;1.00
14057;DHT22;7103;54.300;10.180;2023-04-15T07:32:57;9.00;1.00
14057;DHT22;7103;54.300;10.180;2023-04-15T07:35:24;9.00;1.00
14057;DHT22;7103;54.300;10.180;2023-04-15T07:37:52;9.00;1.00
14057;DHT22;7103;54.300;10.180;2023-04-15T07:40:19;9.00;1.00
14057;DHT22;7103;54.300;10.180;2023-04-15T07:42:46;9.10;1.00
14057;DHT22;7103;54.300;10.180;2023-04-15T07:45:15;9.10;1.00
14057;DHT22;7103;54.300;10.180;2023-04-15T07:47:42;9.10;1.00
14057;DHT22;7103;54.300;10.180;2023-04-15T07:50:09;9.20;1.00
14057;DHT22;7103;54.300;10.180;2023-04-15T07:52:40;9.20;1.00
14057;DHT22;7103;54.300;10.180;2023-04-15T07:55:08;9.40;1.00
14057;DHT22;7103;54.300;10.180;2023-04-15T07:57:36;9.50;1.00
14057;DHT22;7103;54.300;10.180;2023-04-15T08:00:04;9.60;1.00
14057;DHT22;7103;54.300;10.180;2023-04-15T08:02:34;9.60;1.00
14057;DHT22;7103;54.300;10.180;2023-04-15T08:05:03;9.70;1.00
14057;DHT22;7103;54.300;10.180;2023-04-15T08:07:30;9.70;1.00
14057;DHT22;7103;54.300;10.180;2023-04-15T08:09:58;9.70;1.00
14057;DHT22;7103;54.300;10.180;2023-04-15T08:12:25;9.70;1.00
14057;DHT22;7103;54.300;10.180;2023-04-15T08:14:51;9.60;1.00
14057;DHT22;7103;54.300;10.180;2023-04-15T08:17:18;9.50;1.00
14057;DHT22;7103;54.300;10.180;2023-04-15T08:19:46;9.60;1.00
14057;DHT22;7103;54.300;10.180;2023-04-15T08:22:14;9.60;1.00
14057;DHT22;7103;54.300;10.180;2023-04-15T08:24:44;9.60;1.00
14057;DHT22;7103;54.300;10.180;2023-04-15T08:27:11;9.70;1.00
14057;DHT22;7103;54.300;10.180;2023-04-15T08:29:39;9.70;1.00
14057;DHT22;7103;54.300;10.180;2023-04-15T08:32:06;9.70;1.00
14057;DHT22;7103;54.300;10.180;2023-04-15T08:34:33;9.70;1.00
14057;DHT22;7103;54.300;10.180;2023-04-15T08:37:00;9.70;1.00
14057;DHT22;7103;54.300;10.180;2023-04-15T08:39:27;9.80;1.00
14057;DHT22;7103;54.300;10.180;2023-04-15T08:42:09;9.70;1.00
14057;DHT22;7103;54.300;10.180;2023-04-15T08:44:37;9.70;1.00
14057;DHT22;7103;54.300;10.180;2023-04-15T08:47:07;9.70;1.00
14057;DHT22;7103;54.300;10.180;2023-04-15T08:49:39;9.80;1.00
14057;DHT22;7103;54.300;10.180;2023-04-15T08:52:08;9.80;1.00
14057;DHT22;7103;54.300;10.180;2023-04-15T08:54:35;9.80;1.00
14057;DHT22;7103;54.300;10.180;2023-04-15T08:57:03;9.90;1.00
14057;DHT22;7103;54.300;10.180;2023-04-15T08:59:30;9.80;1.00
14057;DHT22;7103;54.300;10.180;2023-04-15T09:01:57;9.80;1.00
14057;DHT22;7103;54.300;10.180;2023-04-15T09:04:25;9.90;1.00
14057;DHT22;7103;54.300;10.180;2023-04-15T09:06:52;9.90;1.00
14057;DHT22;7103;54.300;10.180;2023-04-15T09:09:18;10.00;1.00
14057;DHT22;7103;54.300;10.180;2023-04-15T09:11:45;9.90;1.00
14057;DHT22;7103;54.300;10.180;2023-04-15T09:14:12;10.10;1.00
14057;DHT22;7103;54.300;10.180;2023-04-15T09:16:59;10.10;1.00
14057;DHT22;7103;54.300;10.180;2023-04-15T09:19:27;10.20;1.00
14057;DHT22;7103;54.300;10.180;2023-04-15T09:21:56;10.40;1.00
14057;DHT22;7103;54.300;10.180;2023-04-15T09:24:32;10.40;1.00
14057;DHT22;7103;54.300;10.180;2023-04-15T09:27:02;10.60;1.00
14057;DHT22;7103;54.300;10.180;2023-04-15T09:29:29;10.80;99.90
14057;DHT22;7103;54.300;10.180;2023-04-15T09:32:08;11.00;99.90
14057;DHT22;7103;54.300;10.180;2023-04-15T09:34:35;11.10;99.90
14057;DHT22;7103;54.300;10.180;2023-04-15T09:37:03;11.30;99.90
14057;DHT22;7103;54.300;10.180;2023-04-15T09:39:47;11.50;99.90
14057;DHT22;7103;54.300;10.180;2023-04-15T09:42:15;11.70;99.90
14057;DHT22;7103;54.300;10.180;2023-04-15T09:44:53;11.90;99.90
14057;DHT22;7103;54.300;10.180;2023-04-15T09:47:27;12.10;99.90
14057;DHT22;7103;54.300;10.180;2023-04-15T09:49:56;12.30;99.90
14057;DHT22;7103;54.300;10.180;2023-04-15T09:52:23;12.40;99.90
14057;DHT22;7103;54.300;10.180;2023-04-15T09:54:52;12.40;99.90
14057;DHT22;7103;54.300;10.180;2023-04-15T09:57:21;12.30;99.90
14057;DHT22;7103;54.300;10.180;2023-04-15T09:59:50;12.30;99.90
14057;DHT22;7103;54.300;10.180;2023-04-15T10:02:18;12.20;99.90
14057;DHT22;7103;54.300;10.180;2023-04-15T10:04:47;12.10;99.90
14057;DHT22;7103;54.300;10.180;2023-04-15T10:07:15;12.20;99.90
14057;DHT22;7103;54.300;10.180;2023-04-15T10:09:47;12.20;99.90
14057;DHT22;7103;54.300;10.180;2023-04-15T10:12:18;12.30;99.90
14057;DHT22;7103;54.300;10.180;2023-04-15T10:14:50;12.40;99.90
14057;DHT22;7103;54.300;10.180;2023-04-15T10:17:21;12.40;99.70
14057;DHT22;7103;54.300;10.180;2023-04-15T10:19:48;12.70;99.90
14057;DHT22;7103;54.300;10.180;2023-04-15T10:22:19;13.00;88.20
14057;DHT22;7103;54.300;10.180;2023-04-15T10:24:46;13.10;46.80
14057;DHT22;7103;54.300;10.180;2023-04-15T10:27:16;13.10;12.50
14057;DHT22;7103;54.300;10.180;2023-04-15T10:29:43;13.30;14.90
14057;DHT22;7103;54.300;10.180;2023-04-15T10:32:12;13.10;1.00
14057;DHT22;7103;54.300;10.180;2023-04-15T10:34:39;12.90;1.00
14057;DHT22;7103;54.300;10.180;2023-04-15T10:37:08;12.80;1.00
14057;DHT22;7103;54.300;10.180;2023-04-15T10:42:12;13.00;1.00
14057;DHT22;7103;54.300;10.180;2023-04-15T10:44:48;13.40;1.00
14057;DHT22;7103;54.300;10.180;2023-04-15T10:47:17;13.60;1.00
14057;DHT22;7103;54.300;10.180;2023-04-15T10:49:50;13.70;1.00
14057;DHT22;7103;54.300;10.180;2023-04-15T10:52:23;13.80;1.00
14057;DHT22;7103;54.300;10.180;2023-04-15T10:55:03;13.80;1.00
14057;DHT22;7103;54.300;10.180;2023-04-15T10:57:39;13.80;1.00
14057;DHT22;7103;54.300;10.180;2023-04-15T11:00:13;13.60;1.00
14057;DHT22;7103;54.300;10.180;2023-04-15T11:03:07;13.80;1.00
14057;DHT22;7103;54.300;10.180;2023-04-15T11:08:09;14.20;1.00
14057;DHT22;7103;54.300;10.180;2023-04-15T11:13:13;14.10;1.00
14057;DHT22;7103;54.300;10.180;2023-04-15T11:15:41;14.00;1.00
14057;DHT22;7103;54.300;10.180;2023-04-15T11:18:20;14.20;1.00
14057;DHT22;7103;54.300;10.180;2023-04-15T11:23:19;15.00;1.00
14057;DHT22;7103;54.300;10.180;2023-04-15T11:25:46;15.00;1.00
14057;DHT22;7103;54.300;10.180;2023-04-15T11:28:14;15.00;1.00
14057;DHT22;7103;54.300;10.180;2023-04-15T11:30:41;14.80;1.00
14057;DHT22;7103;54.300;10.180;2023-04-15T11:33:10;14.70;1.00
14057;DHT22;7103;54.300;10.180;2023-04-15T11:35:42;14.80;1.00
14057;DHT22;7103;54.300;10.180;2023-04-15T11:38:11;15.10;1.00
14057;DHT22;7103;54.300;10.180;2023-04-15T11:40:40;15.20;1.00
14057;DHT22;7103;54.300;10.180;2023-04-15T11:43:14;15.40;1.00
14057;DHT22;7103;54.300;10.180;2023-04-15T11:45:56;15.50;1.00
14057;DHT22;7103;54.300;10.180;2023-04-15T11:48:25;15.10;1.00
14057;DHT22;7103;54.300;10.180;2023-04-15T11:51:00;15.10;1.00
14057;DHT22;7103;54.300;10.180;2023-04-15T11:53:41;14.90;1.00
14057;DHT22;7103;54.300;10.180;2023-04-15T11:56:10;15.30;1.00
14057;DHT22;7103;54.300;10.180;2023-04-15T11:58:37;15.70;1.00
14057;DHT22;7103;54.300;10.180;2023-04-15T12:01:05;15.70;1.00
14057;DHT22;7103;54.300;10.180;2023-04-15T12:03:41;15.70;1.00
14057;DHT22;7103;54.300;10.180;2023-04-15T12:08:52;15.90;1.00
14057;DHT22;7103;54.300;10.180;2023-04-15T12:11:25;16.00;1.00
14057;DHT22;7103;54.300;10.180;2023-04-15T12:16:35;15.60;1.00
14057;DHT22;7103;54.300;10.180;2023-04-15T12:19:18;15.40;1.00
14057;DHT22;7103;54.300;10.180;2023-04-15T12:21:48;15.20;1.00
14057;DHT22;7103;54.300;10.180;2023-04-15T12:24:19;14.80;1.00
14057;DHT22;7103;54.300;10.180;2023-04-15T12:26:49;14.70;1.00
14057;DHT22;7103;54.300;10.180;2023-04-15T12:29:18;14.80;1.00
14057;DHT22;7103;54.300;10.180;2023-04-15T12:32:12;14.80;1.00
14057;DHT22;7103;54.300;10.180;2023-04-15T12:34:49;14.70;1.00
14057;DHT22;7103;54.300;10.180;2023-04-15T12:37:17;14.70;1.00
14057;DHT22;7103;54.300;10.180;2023-04-15T12:39:46;15.00;1.00
14057;DHT22;7103;54.300;10.180;2023-04-15T12:42:15;15.30;1.00
14057;DHT22;7103;54.300;10.180;2023-04-15T12:44:43;15.70;1.00
14057;DHT22;7103;54.300;10.180;2023-04-15T12:47:11;15.40;1.00
14057;DHT22;7103;54.300;10.180;2023-04-15T12:49:38;15.20;1.00
14057;DHT22;7103;54.300;10.180;2023-04-15T12:52:06;14.90;1.00
14057;DHT22;7103;54.300;10.180;2023-04-15T12:54:33;14.90;1.00
14057;DHT22;7103;54.300;10.180;2023-04-15T12:57:01;15.10;1.00
14057;DHT22;7103;54.300;10.180;2023-04-15T12:59:32;15.20;1.00
14057;DHT22;7103;54.300;10.180;2023-04-15T13:01:59;15.40;1.00
14057;DHT22;7103;54.300;10.180;2023-04-15T13:04:28;15.60;1.00
14057;DHT22;7103;54.300;10.180;2023-04-15T13:06:59;15.80;1.00
14057;DHT22;7103;54.300;10.180;2023-04-15T13:09:26;15.80;1.00
14057;DHT22;7103;54.300;10.180;2023-04-15T13:11:54;15.60;1.00
14057;DHT22;7103;54.300;10.180;2023-04-15T13:14:21;15.30;1.00
14057;DHT22;7103;54.300;10.180;2023-04-15T13:16:48;14.90;1.00
14057;DHT22;7103;54.300;10.180;2023-04-15T13:19:16;14.80;1.00
14057;DHT22;7103;54.300;10.180;2023-04-15T13:21:43;14.80;1.00
14057;DHT22;7103;54.300;10.180;2023-04-15T13:24:10;14.90;1.00
14057;DHT22;7103;54.300;10.180;2023-04-15T13:26:37;15.10;1.00
14057;DHT22;7103;54.300;10.180;2023-04-15T13:29:04;15.20;1.00
14057;DHT22;7103;54.300;10.180;2023-04-15T13:31:31;15.00;1.00
14057;DHT22;7103;54.300;10.180;2023-04-15T13:33:58;15.00;1.00
14057;DHT22;7103;54.300;10.180;2023-04-15T13:36:25;15.30;1.00
14057;DHT22;7103;54.300;10.180;2023-04-15T13:38:53;15.40;1.00
14057;DHT22;7103;54.300;10.180;2023-04-15T13:41:20;15.40;1.00
14057;DHT22;7103;54.300;10.180;2023-04-15T13:43:47;15.30;1.00
14057;DHT22;7103;54.300;10.180;2023-04-15T13:46:14;15.20;1.00
14057;DHT22;7103;54.300;10.180;2023-04-15T13:48:41;15.30;1.00
14057;DHT22;7103;54.300;10.180;2023-04-15T13:51:08;15.40;1.00
14057;DHT22;7103;54.300;10.180;2023-04-15T13:53:35;15.20;1.00
14057;DHT22;7103;54.300;10.180;2023-04-15T13:56:05;15.30;1.00
14057;DHT22;7103;54.300;10.180;2023-04-15T13:58:32;15.20;1.00
14057;DHT22;7103;54.300;10.180;2023-04-15T14:00:59;15.10;1.00
14057;DHT22;7103;54.300;10.180;2023-04-15T14:03:29;14.90;1.00
14057;DHT22;7103;54.300;10.180;2023-04-15T14:05:56;14.80;1.00
14057;DHT22;7103;54.300;10.180;2023-04-15T14:08:24;14.60;1.00
14057;DHT22;7103;54.300;10.180;2023-04-15T14:10:51;14.60;1.00
14057;DHT22;7103;54.300;10.180;2023-04-15T14:13:18;14.30;1.00
14057;DHT22;7103;54.300;10.180;2023-04-15T14:15:46;14.20;1.00
14057;DHT22;7103;54.300;10.180;2023-04-15T14:18:13;14.10;1.00
14057;DHT22;7103;54.300;10.180;2023-04-15T14:20:40;14.00;1.00
14057;DHT22;7103;54.300;10.180;2023-04-15T14:23:07;14.10;1.00
14057;DHT22;7103;54.300;10.180;2023-04-15T14:25:34;14.30;1.00
14057;DHT22;7103;54.300;10.180;2023-04-15T14:28:01;14.40;1.00
14057;DHT22;7103;54.300;10.180;2023-04-15T14:30:29;14.50;1.00
14057;DHT22;7103;54.300;10.180;2023-04-15T14:32:56;14.30;1.00
14057;DHT22;7103;54.300;10.180;2023-04-15T14:35:23;14.30;1.00
14057;DHT22;7103;54.300;10.180;2023-04-15T14:37:55;14.30;1.00
14057;DHT22;7103;54.300;10.180;2023-04-15T14:40:22;14.30;1.00
14057;DHT22;7103;54.300;10.180;2023-04-15T14:42:49;14.30;1.00
14057;DHT22;7103;54.300;10.180;2023-04-15T14:45:16;14.20;1.00
14057;DHT22;7103;54.300;10.180;2023-04-15T14:47:44;14.10;1.00
14057;DHT22;7103;54.300;10.180;2023-04-15T14:50:14;14.00;1.00
14057;DHT22;7103;54.300;10.180;2023-04-15T14:52:41;14.10;1.00
14057;DHT22;7103;54.300;10.180;2023-04-15T14:55:10;14.10;1.00
14057;DHT22;7103;54.300;10.180;2023-04-15T14:57:39;14.20;1.00
14057;DHT22;7103;54.300;10.180;2023-04-15T15:00:08;14.20;1.00
14057;DHT22;7103;54.300;10.180;2023-04-15T15:02:36;14.20;1.00
14057;DHT22;7103;54.300;10.180;2023-04-15T15:05:07;14.10;1.00
14057;DHT22;7103;54.300;10.180;2023-04-15T15:07:35;14.00;1.00
14057;DHT22;7103;54.300;10.180;2023-04-15T15:10:05;13.80;1.00
14057;DHT22;7103;54.300;10.180;2023-04-15T15:12:32;13.80;1.00
14057;DHT22;7103;54.300;10.180;2023-04-15T15:14:59;13.80;1.00
14057;DHT22;7103;54.300;10.180;2023-04-15T15:17:30;13.80;1.00
14057;DHT22;7103;54.300;10.180;2023-04-15T15:19:57;13.80;1.00
14057;DHT22;7103;54.300;10.180;2023-04-15T15:22:24;13.70;1.00
14057;DHT22;7103;54.300;10.180;2023-04-15T15:24:51;13.60;1.00
14057;DHT22;7103;54.300;10.180;2023-04-15T15:27:19;13.50;1.00
14057;DHT22;7103;54.300;10.180;2023-04-15T15:29:46;13.50;1.00
14057;DHT22;7103;54.300;10.180;2023-04-15T15:32:14;13.30;1.00
14057;DHT22;7103;54.300;10.180;2023-04-15T15:34:41;13.20;1.00
14057;DHT22;7103;54.300;10.180;2023-04-15T15:37:11;13.10;1.00
14057;DHT22;7103;54.300;10.180;2023-04-15T15:39:38;13.10;1.00
14057;DHT22;7103;54.300;10.180;2023-04-15T15:42:05;13.20;1.00
14057;DHT22;7103;54.300;10.180;2023-04-15T15:44:34;13.20;1.00
14057;DHT22;7103;54.300;10.180;2023-04-15T15:47:04;13.10;1.00
14057;DHT22;7103;54.300;10.180;2023-04-15T15:49:31;13.00;1.00
14057;DHT22;7103;54.300;10.180;2023-04-15T15:51:58;13.00;1.00
14057;DHT22;7103;54.300;10.180;2023-04-15T15:54:25;12.90;1.00
14057;DHT22;7103;54.300;10.180;2023-04-15T15:56:52;12.90;1.00
14057;DHT22;7103;54.300;10.180;2023-04-15T15:59:19;13.10;1.00
14057;DHT22;7103;54.300;10.180;2023-04-15T16:01:46;13.10;1.00
14057;DHT22;7103;54.300;10.180;2023-04-15T16:04:14;13.10;1.00
14057;DHT22;7103;54.300;10.180;2023-04-15T16:06:41;13.10;1.00
14057;DHT22;7103;54.300;10.180;2023-04-15T16:09:10;13.10;1.00
14057;DHT22;7103;54.300;10.180;2023-04-15T16:11:37;13.00;1.00
14057;DHT22;7103;54.300;10.180;2023-04-15T16:14:04;12.80;1.00